createdAt,value
2022-11-29T00:01:27.430Z,7.98
2022-11-29T00:03:55.813Z,8.00
2022-11-29T00:06:27.156Z,8.01
2022-11-29T00:08:55.552Z,8.03
2022-11-29T00:11:38.569Z,8.03
2022-11-29T00:14:08.066Z,8.05
2022-11-29T00:16:35.979Z,8.04
2022-11-29T00:19:04.048Z,8.02
2022-11-29T00:21:33.260Z,8.06
2022-11-29T00:24:01.334Z,8.06
2022-11-29T00:26:29.383Z,8.05
2022-11-29T00:28:57.411Z,8.04
2022-11-29T00:31:26.512Z,7.98
2022-11-29T00:33:54.364Z,8.00
2022-11-29T00:36:22.141Z,8.01
2022-11-29T00:38:51.262Z,7.97
2022-11-29T00:41:19.152Z,7.97
2022-11-29T00:43:47.136Z,7.96
2022-11-29T00:46:15.000Z,7.97
2022-11-29T00:48:42.896Z,7.98
2022-11-29T00:51:10.825Z,7.99
2022-11-29T00:53:38.742Z,7.95
2022-11-29T00:56:08.695Z,7.96
2022-11-29T00:58:37.062Z,7.96
2022-11-29T01:01:05.407Z,7.95
2022-11-29T01:03:33.371Z,7.96
2022-11-29T01:06:01.774Z,7.96
2022-11-29T01:08:29.716Z,7.95
2022-11-29T01:11:05.377Z,7.92
2022-11-29T01:13:35.162Z,7.99
2022-11-29T01:16:02.976Z,7.96
2022-11-29T01:18:31.415Z,7.94
2022-11-29T01:20:59.907Z,7.97
2022-11-29T01:23:28.354Z,7.97
2022-11-29T01:25:57.221Z,7.98
2022-11-29T01:28:25.088Z,8.05
2022-11-29T01:30:54.360Z,8.02
2022-11-29T01:33:22.533Z,7.98
2022-11-29T01:35:50.984Z,7.96
2022-11-29T01:38:19.406Z,7.99
2022-11-29T01:40:57.084Z,7.96
2022-11-29T01:43:25.235Z,7.92
2022-11-29T01:45:54.551Z,7.93
2022-11-29T01:48:23.352Z,7.94
2022-11-29T01:50:51.632Z,7.92
2022-11-29T01:53:20.201Z,7.92
2022-11-29T01:55:51.721Z,7.95
2022-11-29T01:58:20.599Z,7.96
2022-11-29T02:00:48.492Z,8.01
2022-11-29T02:03:18.508Z,8.01
2022-11-29T02:05:48.083Z,8.05
2022-11-29T02:08:17.548Z,8.02
2022-11-29T02:10:52.387Z,8.02
2022-11-29T02:13:26.060Z,8.04
2022-11-29T02:15:57.162Z,8.00
2022-11-29T02:18:31.544Z,7.94
2022-11-29T02:21:15.947Z,7.98
2022-11-29T02:24:01.835Z,8.01
2022-11-29T02:26:43.178Z,8.00
2022-11-29T02:29:24.072Z,7.99
2022-11-29T02:32:08.903Z,8.01
2022-11-29T02:35:02.698Z,8.02
2022-11-29T02:37:57.787Z,7.96
2022-11-29T02:40:34.637Z,7.98
2022-11-29T02:43:18.336Z,7.95
2022-11-29T02:46:04.953Z,7.98
2022-11-29T02:48:49.923Z,8.00
2022-11-29T02:51:25.098Z,8.02
2022-11-29T02:53:58.129Z,8.03
2022-11-29T02:56:28.892Z,7.99
2022-11-29T02:59:00.931Z,8.03
2022-11-29T03:01:33.343Z,7.95
2022-11-29T03:04:07.632Z,7.98
2022-11-29T03:06:40.204Z,7.93
2022-11-29T03:09:11.477Z,7.97
2022-11-29T03:11:42.374Z,7.94
2022-11-29T03:14:15.460Z,7.91
2022-11-29T03:16:47.035Z,7.98
2022-11-29T03:19:24.063Z,7.96
2022-11-29T03:22:00.380Z,7.94
2022-11-29T03:24:32.491Z,7.92
2022-11-29T03:27:02.518Z,7.86
2022-11-29T03:29:33.640Z,7.95
2022-11-29T03:32:05.131Z,7.90
2022-11-29T03:34:40.567Z,7.93
2022-11-29T03:37:14.134Z,7.86
2022-11-29T03:39:46.327Z,7.83
2022-11-29T03:42:16.940Z,7.92
2022-11-29T03:44:49.587Z,7.84
2022-11-29T03:47:20.461Z,7.86
2022-11-29T03:49:50.722Z,7.87
2022-11-29T03:52:22.333Z,7.83
2022-11-29T03:54:55.689Z,7.87
2022-11-29T03:57:30.902Z,7.81
2022-11-29T04:00:02.484Z,7.83
2022-11-29T04:02:48.271Z,7.77
2022-11-29T04:05:22.372Z,7.84
2022-11-29T04:08:00.825Z,7.85
2022-11-29T04:10:48.923Z,7.80
2022-11-29T04:13:29.536Z,7.72
2022-11-29T04:16:07.463Z,7.72
2022-11-29T04:18:53.100Z,7.74
2022-11-29T04:21:31.620Z,7.72
2022-11-29T04:24:18.245Z,7.79
2022-11-29T04:27:07.356Z,7.67
2022-11-29T04:29:45.248Z,7.61
2022-11-29T04:32:31.140Z,7.60
2022-11-29T04:35:12.099Z,7.55
2022-11-29T04:38:08.996Z,7.52
2022-11-29T04:40:52.685Z,7.51
2022-11-29T04:43:28.687Z,7.46
2022-11-29T04:46:07.530Z,7.46
2022-11-29T04:48:43.796Z,7.40
2022-11-29T04:51:19.748Z,7.35
2022-11-29T04:53:50.535Z,7.20
2022-11-29T04:56:24.324Z,7.11
2022-11-29T04:58:56.171Z,7.05
2022-11-29T05:01:30.639Z,7.05
2022-11-29T05:04:03.062Z,6.89
2022-11-29T05:06:36.169Z,6.78
2022-11-29T05:09:08.524Z,6.66
2022-11-29T05:11:44.455Z,6.62
2022-11-29T05:14:21.285Z,6.58
2022-11-29T05:16:54.888Z,6.66
2022-11-29T05:19:46.674Z,6.73
2022-11-29T05:22:23.733Z,6.79
2022-11-29T05:24:57.142Z,6.75
2022-11-29T05:27:29.206Z,6.70
2022-11-29T05:30:00.253Z,6.70
2022-11-29T05:32:32.521Z,6.63
2022-11-29T05:35:09.009Z,6.63
2022-11-29T05:37:40.183Z,6.67
2022-11-29T05:40:22.017Z,6.74
2022-11-29T05:42:59.962Z,6.82
2022-11-29T05:45:31.452Z,6.81
2022-11-29T05:48:05.268Z,6.78
2022-11-29T05:50:36.501Z,6.85
2022-11-29T05:53:13.790Z,6.85
2022-11-29T05:55:45.663Z,6.84
2022-11-29T05:58:23.431Z,6.75
2022-11-29T06:01:00.573Z,6.76
2022-11-29T06:03:33.872Z,6.75
2022-11-29T06:06:08.029Z,6.78
2022-11-29T06:08:38.377Z,6.83
2022-11-29T06:11:07.611Z,6.82
2022-11-29T06:13:41.295Z,6.84
2022-11-29T06:16:19.861Z,6.82
2022-11-29T06:19:05.886Z,6.81
2022-11-29T06:21:40.139Z,6.82
2022-11-29T06:24:21.814Z,6.85
2022-11-29T06:27:05.722Z,6.88
2022-11-29T06:29:38.811Z,6.91
2022-11-29T06:32:15.229Z,6.91
2022-11-29T06:34:47.546Z,6.89
2022-11-29T06:37:21.150Z,6.87
2022-11-29T06:39:49.513Z,6.92
2022-11-29T06:42:19.862Z,7.01
2022-11-29T06:44:47.997Z,6.94
2022-11-29T06:47:20.172Z,6.92
2022-11-29T06:49:49.601Z,6.87
2022-11-29T06:52:23.717Z,6.88
2022-11-29T06:54:56.936Z,6.90
2022-11-29T06:57:31.042Z,6.91
2022-11-29T07:00:03.768Z,6.90
2022-11-29T07:02:39.165Z,6.85
2022-11-29T07:05:13.920Z,6.85
2022-11-29T07:07:43.673Z,6.81
2022-11-29T07:10:15.169Z,6.80
2022-11-29T07:12:43.513Z,6.80
2022-11-29T07:15:14.210Z,6.82
2022-11-29T07:17:48.742Z,6.84
2022-11-29T07:20:20.664Z,6.90
2022-11-29T07:22:55.880Z,6.97
2022-11-29T07:25:31.036Z,6.94
2022-11-29T07:28:05.561Z,6.97
2022-11-29T07:30:38.685Z,7.01
2022-11-29T07:33:12.224Z,7.03
2022-11-29T07:35:44.863Z,7.04
2022-11-29T07:38:20.856Z,7.06
2022-11-29T07:40:54.009Z,7.10
2022-11-29T07:43:29.462Z,7.12
2022-11-29T07:45:57.987Z,7.15
2022-11-29T07:48:26.817Z,7.18
2022-11-29T07:50:55.119Z,7.24
2022-11-29T07:53:25.283Z,7.21
2022-11-29T07:55:53.108Z,7.19
2022-11-29T07:58:21.120Z,7.24
2022-11-29T08:00:50.312Z,7.29
2022-11-29T08:03:18.235Z,7.32
2022-11-29T08:05:47.177Z,7.39
2022-11-29T08:08:15.070Z,7.44
2022-11-29T08:10:44.577Z,7.47
2022-11-29T08:13:12.428Z,7.53
2022-11-29T08:15:45.343Z,7.61
2022-11-29T08:18:16.200Z,7.61
2022-11-29T08:20:44.428Z,7.62
2022-11-29T08:23:12.831Z,7.68
2022-11-29T08:25:40.653Z,7.67
2022-11-29T08:28:10.340Z,7.69
2022-11-29T08:30:38.684Z,7.82
2022-11-29T08:33:07.067Z,7.79
2022-11-29T08:35:35.405Z,7.78
2022-11-29T08:38:04.866Z,7.87
2022-11-29T08:40:32.880Z,7.94
2022-11-29T08:43:00.871Z,7.97
2022-11-29T08:45:30.034Z,7.97
2022-11-29T08:47:57.861Z,8.15
2022-11-29T08:50:25.743Z,8.11
2022-11-29T08:53:11.348Z,8.09
2022-11-29T08:55:40.591Z,8.09
2022-11-29T08:58:09.866Z,8.17
2022-11-29T09:00:39.257Z,8.14
2022-11-29T09:03:25.667Z,8.09
2022-11-29T09:05:54.045Z,8.11
2022-11-29T09:08:22.492Z,8.14
2022-11-29T09:10:50.275Z,8.10
2022-11-29T09:13:18.547Z,8.15
2022-11-29T09:15:47.706Z,8.12
2022-11-29T09:18:15.672Z,8.18
2022-11-29T09:20:44.584Z,8.15
2022-11-29T09:23:13.012Z,8.15
2022-11-29T09:25:52.121Z,8.21
2022-11-29T09:28:19.962Z,8.28
2022-11-29T09:30:50.413Z,8.28
2022-11-29T09:33:18.261Z,8.33
2022-11-29T09:35:46.347Z,8.38
2022-11-29T09:38:15.111Z,8.49
2022-11-29T09:40:45.911Z,8.35
2022-11-29T09:43:18.408Z,8.41
2022-11-29T09:45:49.459Z,8.52
2022-11-29T09:48:35.043Z,8.58
2022-11-29T09:51:10.167Z,8.58
2022-11-29T09:53:44.774Z,8.52
2022-11-29T09:56:16.280Z,8.53
2022-11-29T09:58:48.024Z,8.61
2022-11-29T10:01:19.998Z,8.51
2022-11-29T10:03:51.778Z,8.47
2022-11-29T10:06:24.094Z,8.49
2022-11-29T10:08:56.633Z,8.54
2022-11-29T10:11:28.181Z,8.62
2022-11-29T10:14:01.874Z,8.60
2022-11-29T10:16:37.271Z,8.53
2022-11-29T10:19:10.128Z,8.61
2022-11-29T10:21:44.317Z,8.61
2022-11-29T10:24:17.779Z,8.62
2022-11-29T10:26:45.810Z,8.57
2022-11-29T10:29:15.689Z,8.41
2022-11-29T10:31:44.491Z,8.38
2022-11-29T10:34:14.226Z,8.38
2022-11-29T10:36:45.572Z,8.32
2022-11-29T10:39:16.754Z,8.41
2022-11-29T10:41:44.634Z,8.54
2022-11-29T10:44:15.581Z,8.60
2022-11-29T10:46:43.648Z,8.62
2022-11-29T10:49:15.661Z,8.52
2022-11-29T10:51:44.981Z,8.61
2022-11-29T10:54:20.945Z,8.66
2022-11-29T10:56:49.377Z,8.59
2022-11-29T10:59:23.466Z,8.59
2022-11-29T11:01:51.753Z,8.60
2022-11-29T11:04:25.588Z,8.62
2022-11-29T11:06:56.704Z,8.69
2022-11-29T11:09:28.677Z,9.05
2022-11-29T11:11:58.430Z,9.08
2022-11-29T11:14:27.452Z,9.20
2022-11-29T11:16:55.337Z,9.26
2022-11-29T11:19:28.652Z,9.31
2022-11-29T11:21:59.291Z,9.29
2022-11-29T11:24:28.871Z,9.25
2022-11-29T11:26:57.332Z,9.13
2022-11-29T11:29:26.527Z,9.06
2022-11-29T11:31:57.159Z,8.78
2022-11-29T11:34:30.052Z,8.75
2022-11-29T11:37:19.011Z,8.68
2022-11-29T11:39:48.088Z,8.78
2022-11-29T11:42:35.002Z,8.89
2022-11-29T11:45:04.236Z,8.98
2022-11-29T11:47:36.711Z,9.07
2022-11-29T11:50:08.962Z,9.00
2022-11-29T11:52:44.949Z,8.82
2022-11-29T11:55:30.888Z,8.83
2022-11-29T11:58:07.835Z,8.62
2022-11-29T12:01:03.340Z,8.54
2022-11-29T12:03:39.169Z,8.49
2022-11-29T12:06:31.207Z,8.56
2022-11-29T12:09:03.869Z,8.60
2022-11-29T12:11:36.196Z,8.58
2022-11-29T12:14:06.377Z,8.58
2022-11-29T12:16:36.563Z,8.63
2022-11-29T12:19:08.142Z,8.51
2022-11-29T12:21:39.743Z,8.60
2022-11-29T12:24:17.347Z,8.64
2022-11-29T12:27:01.064Z,8.62
2022-11-29T12:29:32.487Z,8.72
2022-11-29T12:32:05.940Z,8.80
2022-11-29T12:34:45.498Z,8.85
2022-11-29T12:37:18.199Z,8.88
2022-11-29T12:39:56.977Z,8.83
2022-11-29T12:42:36.110Z,8.84
2022-11-29T12:45:13.535Z,8.93
2022-11-29T12:47:52.153Z,9.06
2022-11-29T12:50:25.634Z,9.13
2022-11-29T12:53:02.996Z,9.11
2022-11-29T12:55:38.462Z,9.10
2022-11-29T12:58:12.047Z,9.15
2022-11-29T13:00:44.895Z,9.23
2022-11-29T13:03:21.542Z,9.30
2022-11-29T13:05:55.937Z,9.22
2022-11-29T13:08:35.117Z,9.18
2022-11-29T13:11:14.050Z,9.19
2022-11-29T13:13:43.655Z,9.19
2022-11-29T13:19:13.119Z,9.17
2022-11-29T13:21:47.831Z,9.21
2022-11-29T13:24:24.192Z,9.27
2022-11-29T13:26:54.372Z,9.33
2022-11-29T13:29:22.579Z,9.45
2022-11-29T13:32:11.409Z,9.55
2022-11-29T13:35:00.326Z,9.48
2022-11-29T13:37:32.033Z,9.52
2022-11-29T13:40:07.771Z,9.42
2022-11-29T13:42:48.338Z,9.10
2022-11-29T13:45:20.558Z,9.09
2022-11-29T13:48:21.503Z,9.09
2022-11-29T13:51:02.502Z,9.02
2022-11-29T13:53:45.274Z,8.99
2022-11-29T13:56:33.992Z,9.04
2022-11-29T13:59:09.131Z,9.13
2022-11-29T14:02:02.215Z,9.01
2022-11-29T14:08:00.130Z,8.94
2022-11-29T14:10:52.874Z,8.92
2022-11-29T14:14:10.801Z,8.89
2022-11-29T14:21:15.136Z,8.74
2022-11-29T14:23:43.611Z,8.68
2022-11-29T14:26:33.565Z,8.72
2022-11-29T14:29:03.179Z,8.66
2022-11-29T14:31:49.573Z,8.61
2022-11-29T14:34:25.078Z,8.58
2022-11-29T14:36:57.622Z,8.63
2022-11-29T14:39:31.304Z,8.76
2022-11-29T14:42:06.215Z,8.82
2022-11-29T14:44:35.320Z,8.79
2022-11-29T14:47:04.988Z,8.72
2022-11-29T14:49:39.359Z,8.77
2022-11-29T14:52:17.491Z,8.75
2022-11-29T14:55:06.141Z,8.71
2022-11-29T14:57:52.601Z,8.73
2022-11-29T15:00:23.114Z,8.81
2022-11-29T15:02:52.327Z,8.68
2022-11-29T15:05:24.264Z,8.56
2022-11-29T15:07:54.096Z,8.57
2022-11-29T15:10:23.637Z,8.57
2022-11-29T15:12:52.397Z,8.50
2022-11-29T15:15:37.214Z,8.47
2022-11-29T15:18:16.274Z,8.42
2022-11-29T15:20:55.842Z,8.33
2022-11-29T15:23:23.854Z,8.32
2022-11-29T15:25:52.716Z,8.29
2022-11-29T15:28:22.740Z,8.20
2022-11-29T15:31:02.008Z,8.14
2022-11-29T15:33:34.395Z,8.04
2022-11-29T15:36:07.076Z,8.04
2022-11-29T15:38:42.687Z,7.98
2022-11-29T15:41:19.908Z,7.93
2022-11-29T15:43:49.189Z,7.86
2022-11-29T15:46:20.158Z,7.81
2022-11-29T15:48:48.319Z,7.80
2022-11-29T15:51:21.275Z,7.87
2022-11-29T15:54:00.453Z,7.84
2022-11-29T15:56:43.483Z,7.96
2022-11-29T15:59:15.867Z,7.82
2022-11-29T16:01:44.753Z,7.78
2022-11-29T16:04:16.140Z,7.82
2022-11-29T16:06:46.132Z,7.81
2022-11-29T16:09:17.504Z,7.86
2022-11-29T16:11:46.706Z,7.87
2022-11-29T16:14:16.724Z,7.84
2022-11-29T16:16:46.134Z,7.83
2022-11-29T16:19:21.746Z,7.84
2022-11-29T16:22:00.887Z,7.77
2022-11-29T16:24:29.009Z,7.72
2022-11-29T16:26:56.968Z,7.62
2022-11-29T16:29:28.078Z,7.57
2022-11-29T16:31:56.380Z,7.58
2022-11-29T16:34:26.545Z,7.59
2022-11-29T16:37:06.464Z,7.71
2022-11-29T16:39:35.780Z,7.71
2022-11-29T16:42:07.410Z,7.68
2022-11-29T16:45:05.691Z,7.62
2022-11-29T16:47:47.172Z,7.49
2022-11-29T16:50:17.289Z,7.53
2022-11-29T16:52:46.603Z,7.54
2022-11-29T16:55:15.759Z,7.52
2022-11-29T16:57:46.388Z,7.45
2022-11-29T17:00:22.441Z,7.48
2022-11-29T17:02:53.053Z,7.47
2022-11-29T17:05:21.091Z,7.50
2022-11-29T17:07:51.329Z,7.58
2022-11-29T17:10:24.045Z,7.52
2022-11-29T17:12:52.591Z,7.59
2022-11-29T17:15:20.475Z,7.71
2022-11-29T17:17:48.287Z,7.63
2022-11-29T17:20:16.238Z,7.58
2022-11-29T17:22:44.133Z,7.49
2022-11-29T17:25:14.379Z,7.52
2022-11-29T17:27:42.229Z,7.51
2022-11-29T17:30:11.289Z,7.49
2022-11-29T17:32:39.181Z,7.49
2022-11-29T17:35:07.168Z,7.60
2022-11-29T17:37:35.189Z,7.63
2022-11-29T17:40:03.055Z,7.56
2022-11-29T17:42:32.287Z,7.52
2022-11-29T17:45:00.178Z,7.58
2022-11-29T17:47:27.970Z,7.52
2022-11-29T17:49:56.078Z,7.52
2022-11-29T17:52:23.926Z,7.61
2022-11-29T17:54:51.757Z,7.56
2022-11-29T17:57:19.808Z,7.67
2022-11-29T17:59:49.078Z,7.65
2022-11-29T18:02:17.179Z,7.55
2022-11-29T18:04:45.362Z,7.62
2022-11-29T18:07:15.767Z,7.50
2022-11-29T18:09:44.278Z,7.48
2022-11-29T18:12:12.398Z,7.47
2022-11-29T18:14:41.271Z,7.52
2022-11-29T18:17:10.477Z,7.65
2022-11-29T18:19:38.329Z,7.62
2022-11-29T18:22:06.190Z,7.55
2022-11-29T18:24:34.152Z,7.54
2022-11-29T18:27:01.997Z,7.53
2022-11-29T18:29:35.938Z,7.57
2022-11-29T18:32:06.338Z,7.55
2022-11-29T18:34:35.559Z,7.61
2022-11-29T18:37:03.368Z,7.68
2022-11-29T18:39:31.152Z,7.60
2022-11-29T18:41:58.955Z,7.60
2022-11-29T18:44:29.424Z,7.55
2022-11-29T18:46:57.684Z,7.55
2022-11-29T18:49:25.498Z,7.55
2022-11-29T18:51:54.687Z,7.59
2022-11-29T18:54:22.539Z,7.51
2022-11-29T18:56:51.256Z,7.62
2022-11-29T18:59:19.062Z,7.51
2022-11-29T19:01:48.769Z,7.51
2022-11-29T19:04:17.366Z,7.47
2022-11-29T19:06:45.297Z,7.43
2022-11-29T19:09:15.482Z,7.43
2022-11-29T19:11:43.421Z,7.38
2022-11-29T19:14:12.569Z,7.39
2022-11-29T19:16:45.530Z,7.37
2022-11-29T19:19:13.549Z,7.33
2022-11-29T19:21:41.931Z,7.31
2022-11-29T19:24:14.684Z,7.26
2022-11-29T19:26:45.376Z,7.27
2022-11-29T19:29:13.986Z,7.27
2022-11-29T19:31:42.398Z,7.40
2022-11-29T19:34:10.576Z,7.35
2022-11-29T19:36:42.816Z,7.33
2022-11-29T19:39:12.737Z,7.34
2022-11-29T19:41:41.839Z,7.30
2022-11-29T19:44:13.575Z,7.24
2022-11-29T19:46:42.734Z,7.21
2022-11-29T19:49:10.776Z,7.22
2022-11-29T19:51:39.192Z,7.30
2022-11-29T19:54:07.765Z,7.26
2022-11-29T19:56:35.815Z,7.26
2022-11-29T19:59:03.964Z,7.17
2022-11-29T20:01:40.257Z,7.13
2022-11-29T20:04:09.690Z,7.22
2022-11-29T20:06:37.566Z,7.20
2022-11-29T20:09:06.332Z,7.22
2022-11-29T20:11:34.285Z,7.21
2022-11-29T20:14:03.280Z,7.18
2022-11-29T20:16:31.723Z,7.18
2022-11-29T20:19:01.602Z,7.25
2022-11-29T20:21:30.464Z,7.28
2022-11-29T20:23:59.087Z,7.30
2022-11-29T20:26:27.667Z,7.24
2022-11-29T20:28:55.647Z,7.24
2022-11-29T20:31:23.992Z,7.29
2022-11-29T20:33:53.083Z,7.17
2022-11-29T20:36:33.694Z,7.22
2022-11-29T20:39:06.921Z,7.19
2022-11-29T20:41:36.553Z,7.13
2022-11-29T20:44:04.743Z,7.18
2022-11-29T20:46:33.648Z,7.22
2022-11-29T20:49:06.479Z,7.23
2022-11-29T20:51:41.302Z,7.27
2022-11-29T20:54:11.009Z,7.27
2022-11-29T20:56:39.160Z,7.29
2022-11-29T20:59:07.450Z,7.22
2022-11-29T21:01:35.409Z,7.12
2022-11-29T21:04:03.398Z,7.08
2022-11-29T21:06:34.637Z,7.15
2022-11-29T21:09:04.085Z,7.10
2022-11-29T21:11:32.654Z,7.23
2022-11-29T21:14:03.793Z,7.17
2022-11-29T21:16:32.127Z,7.15
2022-11-29T21:19:01.533Z,7.05
2022-11-29T21:21:34.954Z,7.00
2022-11-29T21:24:07.594Z,6.99
2022-11-29T21:26:41.712Z,7.08
2022-11-29T21:29:15.873Z,7.07
2022-11-29T21:31:48.744Z,7.10
2022-11-29T21:34:17.074Z,7.01
2022-11-29T21:36:45.067Z,7.00
2022-11-29T21:39:16.485Z,7.02
2022-11-29T21:41:44.621Z,7.02
2022-11-29T21:44:18.013Z,7.04
2022-11-29T21:46:47.512Z,7.15
2022-11-29T21:49:15.425Z,7.07
2022-11-29T21:51:43.315Z,7.09
2022-11-29T21:54:11.125Z,7.04
2022-11-29T21:56:40.399Z,7.03
2022-11-29T21:59:08.353Z,7.07
2022-11-29T22:01:36.242Z,7.06
2022-11-29T22:04:04.612Z,7.08
2022-11-29T22:06:32.647Z,7.10
2022-11-29T22:09:00.662Z,7.13
2022-11-29T22:11:31.819Z,7.09
2022-11-29T22:14:20.421Z,7.22
2022-11-29T22:16:50.036Z,7.13
2022-11-29T22:19:19.277Z,7.07
2022-11-29T22:21:48.349Z,7.09
2022-11-29T22:24:17.278Z,7.16
2022-11-29T22:26:45.220Z,7.12
2022-11-29T22:29:14.972Z,7.07
2022-11-29T22:31:43.178Z,7.13
2022-11-29T22:34:11.599Z,7.17
2022-11-29T22:36:39.723Z,7.15
2022-11-29T22:39:08.980Z,7.16
2022-11-29T22:41:37.572Z,7.17
2022-11-29T22:44:05.776Z,7.16
2022-11-29T22:46:35.993Z,7.23
2022-11-29T22:49:03.841Z,7.18
2022-11-29T22:51:32.386Z,7.17
2022-11-29T22:54:00.975Z,7.22
2022-11-29T22:56:29.744Z,7.18
2022-11-29T22:58:57.633Z,7.27
2022-11-29T23:01:26.293Z,7.28
2022-11-29T23:03:56.392Z,7.26
2022-11-29T23:06:27.459Z,7.28
2022-11-29T23:08:56.235Z,7.23
2022-11-29T23:11:25.299Z,7.19
2022-11-29T23:13:53.184Z,7.13
2022-11-29T23:16:22.561Z,7.18
2022-11-29T23:18:50.842Z,7.16
2022-11-29T23:21:22.196Z,7.09
2022-11-29T23:23:55.812Z,7.12
2022-11-29T23:26:26.310Z,7.11
2022-11-29T23:28:54.672Z,7.06
2022-11-29T23:31:23.010Z,7.07
2022-11-29T23:33:50.878Z,7.13
2022-11-29T23:36:20.077Z,7.20
2022-11-29T23:38:48.346Z,7.25
2022-11-29T23:41:16.239Z,7.25
2022-11-29T23:43:44.111Z,7.20
2022-11-29T23:46:14.730Z,7.14
2022-11-29T23:48:42.625Z,7.13
2022-11-29T23:51:10.986Z,7.05
2022-11-29T23:53:40.487Z,7.01
2022-11-29T23:56:09.516Z,7.08
2022-11-29T23:58:37.951Z,7.09
